createdAt,value
2023-03-28T00:01:03.599Z,1.57
2023-03-28T00:03:36.368Z,2.07
2023-03-28T00:06:09.727Z,2.40
2023-03-28T00:08:40.305Z,2.03
2023-03-28T00:11:12.738Z,2.40
2023-03-28T00:13:41.629Z,2.60
2023-03-28T00:16:13.202Z,2.33
2023-03-28T00:18:42.942Z,2.00
2023-03-28T00:21:24.171Z,2.03
2023-03-28T00:23:54.464Z,2.03
2023-03-28T00:26:26.912Z,2.50
2023-03-28T00:28:55.945Z,2.10
2023-03-28T00:31:25.244Z,2.23
2023-03-28T00:33:53.621Z,2.23
2023-03-28T00:36:23.607Z,2.50
2023-03-28T00:38:52.490Z,2.50
2023-03-28T00:41:21.872Z,2.30
2023-03-28T00:43:54.818Z,2.17
2023-03-28T00:46:26.452Z,2.17
2023-03-28T00:48:57.911Z,2.30
2023-03-28T00:51:31.340Z,2.17
2023-03-28T00:54:02.584Z,2.67
2023-03-28T00:56:35.286Z,2.13
2023-03-28T00:59:09.251Z,2.30
2023-03-28T01:01:37.699Z,2.20
2023-03-28T01:04:07.115Z,2.00
2023-03-28T01:06:40.578Z,2.20
2023-03-28T01:09:10.267Z,2.10
2023-03-28T01:11:40.816Z,2.20
2023-03-28T01:14:13.294Z,2.53
2023-03-28T01:16:43.067Z,2.00
2023-03-28T01:19:22.100Z,1.73
2023-03-28T01:22:16.717Z,2.17
2023-03-28T01:25:06.783Z,1.90
2023-03-28T01:27:41.400Z,1.73
2023-03-28T01:30:47.424Z,2.23
2023-03-28T01:33:43.695Z,2.00
2023-03-28T01:36:38.052Z,2.03
2023-03-28T01:39:11.255Z,2.20
2023-03-28T01:41:45.895Z,2.20
2023-03-28T01:44:21.780Z,2.47
2023-03-28T01:46:58.938Z,2.70
2023-03-28T01:49:35.111Z,2.80
2023-03-28T01:52:10.375Z,2.10
2023-03-28T01:54:45.697Z,2.50
2023-03-28T01:57:18.786Z,2.17
2023-03-28T01:59:50.814Z,2.60
2023-03-28T02:02:24.805Z,2.40
2023-03-28T02:04:57.243Z,2.70
2023-03-28T02:07:28.810Z,2.50
2023-03-28T02:09:58.319Z,2.60
2023-03-28T02:12:32.176Z,3.37
2023-03-28T02:15:05.081Z,3.40
2023-03-28T02:17:36.223Z,4.53
2023-03-28T02:20:09.238Z,4.07
2023-03-28T02:22:42.108Z,4.53
2023-03-28T02:25:10.812Z,4.57
2023-03-28T02:27:40.556Z,5.17
2023-03-28T02:30:10.422Z,5.40
2023-03-28T02:32:38.550Z,5.23
2023-03-28T02:35:09.191Z,4.73
2023-03-28T02:37:46.995Z,4.93
2023-03-28T02:40:33.706Z,4.33
2023-03-28T02:43:22.293Z,5.87
2023-03-28T02:46:09.990Z,8.00
2023-03-28T02:48:52.770Z,7.30
2023-03-28T02:51:31.764Z,6.40
2023-03-28T02:54:10.565Z,7.90
2023-03-28T02:56:51.258Z,5.97
2023-03-28T02:59:27.817Z,5.97
2023-03-28T03:01:56.495Z,5.37
2023-03-28T03:04:24.551Z,5.50
2023-03-28T03:06:52.756Z,5.23
2023-03-28T03:09:23.039Z,4.77
2023-03-28T03:11:51.169Z,4.73
2023-03-28T03:14:19.179Z,4.03
2023-03-28T03:16:48.921Z,3.57
2023-03-28T03:19:17.316Z,3.40
2023-03-28T03:21:45.528Z,3.33
2023-03-28T03:24:14.467Z,3.70
2023-03-28T03:26:44.329Z,3.50
2023-03-28T03:29:12.309Z,2.93
2023-03-28T03:31:40.391Z,2.70
2023-03-28T03:34:08.485Z,3.00
2023-03-28T03:36:36.725Z,3.10
2023-03-28T03:39:05.108Z,3.07
2023-03-28T03:41:33.328Z,3.00
2023-03-28T03:44:03.158Z,4.37
2023-03-28T03:46:32.321Z,5.63
2023-03-28T03:49:00.372Z,6.17
2023-03-28T03:51:28.680Z,7.80
2023-03-28T03:53:58.455Z,7.83
2023-03-28T03:56:27.237Z,6.80
2023-03-28T03:58:55.704Z,5.77
2023-03-28T04:01:26.093Z,5.73
2023-03-28T04:03:54.761Z,7.07
2023-03-28T04:06:22.930Z,8.37
2023-03-28T04:08:51.439Z,11.23
2023-03-28T04:11:19.827Z,17.57
2023-03-28T04:13:48.129Z,19.70
2023-03-28T04:16:16.832Z,23.00
2023-03-28T04:18:50.791Z,23.30
2023-03-28T04:21:20.802Z,26.03
2023-03-28T04:23:49.364Z,24.93
2023-03-28T04:26:20.840Z,25.23
2023-03-28T04:28:49.024Z,23.00
2023-03-28T04:31:17.374Z,23.37
2023-03-28T04:33:47.015Z,22.20
2023-03-28T04:36:17.023Z,22.27
2023-03-28T04:38:47.274Z,23.87
2023-03-28T04:41:16.846Z,24.33
2023-03-28T04:43:45.244Z,27.60
2023-03-28T04:46:13.346Z,28.73
2023-03-28T04:48:42.198Z,30.73
2023-03-28T04:51:11.993Z,29.57
2023-03-28T04:53:40.590Z,28.17
2023-03-28T04:56:13.953Z,29.07
2023-03-28T04:58:42.665Z,29.40
2023-03-28T05:01:11.715Z,28.73
2023-03-28T05:03:39.969Z,30.43
2023-03-28T05:06:08.612Z,29.43
2023-03-28T05:08:38.484Z,29.23
2023-03-28T05:11:06.889Z,30.23
2023-03-28T05:13:35.092Z,31.10
2023-03-28T05:16:03.261Z,32.50
2023-03-28T05:18:31.612Z,32.27
2023-03-28T05:20:59.840Z,33.70
2023-03-28T05:23:28.220Z,34.27
2023-03-28T05:25:58.964Z,33.97
2023-03-28T05:28:27.111Z,33.53
2023-03-28T05:30:55.213Z,33.27
2023-03-28T05:33:23.796Z,33.93
2023-03-28T05:35:51.872Z,34.50
2023-03-28T05:38:19.839Z,33.13
2023-03-28T05:40:48.035Z,32.80
2023-03-28T05:43:17.899Z,32.67
2023-03-28T05:45:47.518Z,34.10
2023-03-28T05:48:15.707Z,34.40
2023-03-28T05:50:45.488Z,34.67
2023-03-28T05:53:14.383Z,35.90
2023-03-28T05:55:43.505Z,36.60
2023-03-28T05:58:11.817Z,34.87
2023-03-28T06:00:42.122Z,34.93
2023-03-28T06:03:17.072Z,35.43
2023-03-28T06:05:46.010Z,35.30
2023-03-28T06:08:14.023Z,35.37
2023-03-28T06:10:42.180Z,36.50
2023-03-28T06:13:10.291Z,36.27
2023-03-28T06:15:38.377Z,34.43
2023-03-28T06:18:07.917Z,35.07
2023-03-28T06:20:36.282Z,34.23
2023-03-28T06:23:04.597Z,35.40
2023-03-28T06:25:32.768Z,35.47
2023-03-28T06:28:01.023Z,34.33
2023-03-28T06:30:29.382Z,35.03
2023-03-28T06:32:57.752Z,34.80
2023-03-28T06:35:27.479Z,35.10
2023-03-28T06:37:56.382Z,34.23
2023-03-28T06:40:24.465Z,33.77
2023-03-28T06:42:52.717Z,35.43
2023-03-28T06:45:20.876Z,35.33
2023-03-28T06:47:51.000Z,34.57
2023-03-28T06:50:19.502Z,34.77
2023-03-28T06:52:49.165Z,33.83
2023-03-28T06:55:17.367Z,34.50
2023-03-28T06:57:45.938Z,33.13
2023-03-28T07:00:14.951Z,33.70
2023-03-28T07:02:43.263Z,33.13
2023-03-28T07:05:11.715Z,32.77
2023-03-28T07:07:40.093Z,33.40
2023-03-28T07:10:10.919Z,32.03
2023-03-28T07:12:39.207Z,32.13
2023-03-28T07:15:08.725Z,31.50
2023-03-28T07:17:37.239Z,30.63
2023-03-28T07:20:06.415Z,29.30
2023-03-28T07:22:34.384Z,27.83
2023-03-28T07:25:06.239Z,26.00
2023-03-28T07:27:36.109Z,23.70
2023-03-28T07:30:04.801Z,23.03
2023-03-28T07:32:42.617Z,21.00
2023-03-28T07:35:18.966Z,19.43
2023-03-28T07:37:47.527Z,19.47
2023-03-28T07:40:16.743Z,13.93
2023-03-28T07:42:46.717Z,10.73
2023-03-28T07:45:15.100Z,9.27
2023-03-28T07:47:45.301Z,5.97
2023-03-28T07:50:13.426Z,4.63
2023-03-28T07:52:45.826Z,4.30
2023-03-28T07:55:14.095Z,4.20
2023-03-28T07:57:42.553Z,4.20
2023-03-28T08:00:14.449Z,3.90
2023-03-28T08:02:45.085Z,3.03
2023-03-28T08:05:16.149Z,3.73
2023-03-28T08:07:46.196Z,2.63
2023-03-28T08:10:15.035Z,3.57
2023-03-28T08:12:43.757Z,2.83
2023-03-28T08:15:13.665Z,3.17
2023-03-28T08:17:42.364Z,2.80
2023-03-28T08:20:11.738Z,3.33
2023-03-28T08:22:39.854Z,3.43
2023-03-28T08:25:09.675Z,3.17
2023-03-28T08:27:37.641Z,3.40
2023-03-28T08:30:06.865Z,2.70
2023-03-28T08:32:36.476Z,3.27
2023-03-28T08:35:08.525Z,2.90
2023-03-28T08:37:36.968Z,3.03
2023-03-28T08:40:08.830Z,3.17
2023-03-28T08:42:52.669Z,3.57
2023-03-28T08:45:33.023Z,3.37
2023-03-28T08:48:13.054Z,3.33
2023-03-28T08:50:47.672Z,3.43
2023-03-28T08:53:21.526Z,3.33
2023-03-28T08:55:53.900Z,3.73
2023-03-28T08:58:25.084Z,3.30
2023-03-28T09:00:54.270Z,3.07
2023-03-28T09:03:25.292Z,3.50
2023-03-28T09:05:57.241Z,3.30
2023-03-28T09:09:11.592Z,3.47
2023-03-28T09:11:51.227Z,3.30
2023-03-28T09:14:46.402Z,3.60
2023-03-28T09:17:23.097Z,3.07
2023-03-28T09:20:11.446Z,2.87
2023-03-28T09:22:52.684Z,2.80
2023-03-28T09:25:32.861Z,2.73
2023-03-28T09:28:09.136Z,2.80
2023-03-28T09:30:41.527Z,3.13
2023-03-28T09:33:16.216Z,2.63
2023-03-28T09:35:48.296Z,2.93
2023-03-28T09:38:22.596Z,3.40
2023-03-28T09:40:52.976Z,2.50
2023-03-28T09:43:28.818Z,2.73
2023-03-28T09:46:02.875Z,2.70
2023-03-28T09:48:33.463Z,2.47
2023-03-28T09:51:04.820Z,2.60
2023-03-28T09:53:37.928Z,2.67
2023-03-28T09:56:12.412Z,2.43
2023-03-28T09:58:52.105Z,2.40
2023-03-28T10:01:33.058Z,2.50
2023-03-28T10:04:02.601Z,2.25
2023-03-28T10:06:33.544Z,2.70
2023-03-28T10:09:20.346Z,2.53
2023-03-28T10:11:56.000Z,2.30
2023-03-28T10:14:32.462Z,2.35
2023-03-28T10:17:06.636Z,2.10
2023-03-28T10:19:37.164Z,2.10
2023-03-28T10:22:09.568Z,2.40
2023-03-28T10:24:39.644Z,2.00
2023-03-28T10:27:16.294Z,2.00
2023-03-28T10:29:46.119Z,1.90
2023-03-28T10:32:15.140Z,2.30
2023-03-28T10:34:43.292Z,2.20
2023-03-28T10:37:28.260Z,2.38
2023-03-28T10:40:05.219Z,2.20
2023-03-28T10:42:42.179Z,2.17
2023-03-28T10:45:21.720Z,1.80
2023-03-28T10:47:52.595Z,2.10
2023-03-28T10:50:36.834Z,2.28
2023-03-28T10:53:31.946Z,2.63
2023-03-28T10:56:13.914Z,2.50
2023-03-28T10:58:53.008Z,2.78
2023-03-28T11:01:24.788Z,2.92
2023-03-28T11:04:06.338Z,3.63
2023-03-28T11:06:45.110Z,3.70
2023-03-28T11:09:23.768Z,3.65
2023-03-28T11:12:03.028Z,3.58
2023-03-28T11:14:43.204Z,3.88
2023-03-28T11:17:19.531Z,3.28
2023-03-28T11:20:18.419Z,3.80
2023-03-28T11:23:05.517Z,3.85
2023-03-28T11:25:44.470Z,3.97
2023-03-28T11:28:22.098Z,3.67
2023-03-28T11:30:56.150Z,4.22
2023-03-28T11:33:30.230Z,4.63
2023-03-28T11:36:05.892Z,4.30
2023-03-28T11:38:40.441Z,4.47
2023-03-28T11:41:14.913Z,4.32
2023-03-28T11:43:49.445Z,3.92
2023-03-28T11:46:22.417Z,4.10
2023-03-28T11:48:55.931Z,3.63
2023-03-28T11:51:29.336Z,3.88
2023-03-28T11:54:01.849Z,3.50
2023-03-28T11:56:46.763Z,3.65
2023-03-28T11:59:22.837Z,3.33
2023-03-28T12:02:00.081Z,3.30
2023-03-28T12:04:33.005Z,3.20
2023-03-28T12:07:11.280Z,3.50
2023-03-28T12:09:52.019Z,2.83
2023-03-28T12:12:26.337Z,3.28
2023-03-28T12:14:59.280Z,2.55
2023-03-28T12:17:31.714Z,2.78
2023-03-28T12:20:00.360Z,2.47
2023-03-28T12:22:34.253Z,2.58
2023-03-28T12:25:10.823Z,2.15
2023-03-28T12:27:52.384Z,2.47
2023-03-28T12:30:26.100Z,2.42
2023-03-28T12:33:01.719Z,1.98
2023-03-28T12:35:38.373Z,2.22
2023-03-28T12:38:19.475Z,3.55
2023-03-28T12:41:01.129Z,2.30
2023-03-28T12:43:40.046Z,2.47
2023-03-28T12:46:09.733Z,2.33
2023-03-28T12:48:43.639Z,2.40
2023-03-28T12:51:19.039Z,2.30
2023-03-28T12:54:00.633Z,2.10
2023-03-28T12:56:29.247Z,2.70
2023-03-28T12:59:00.098Z,2.88
2023-03-28T13:01:48.758Z,2.20
2023-03-28T13:04:28.858Z,3.15
2023-03-28T13:07:08.631Z,2.22
2023-03-28T13:09:51.587Z,2.65
2023-03-28T13:12:35.041Z,2.10
2023-03-28T13:15:29.002Z,2.20
2023-03-28T13:18:28.592Z,2.40
2023-03-28T13:20:57.693Z,2.30
2023-03-28T13:23:37.851Z,2.75
2023-03-28T13:26:07.508Z,2.22
2023-03-28T13:28:42.219Z,2.85
2023-03-28T13:31:22.821Z,3.20
2023-03-28T13:33:58.863Z,2.35
2023-03-28T13:36:29.571Z,2.78
2023-03-28T13:39:20.732Z,3.10
2023-03-28T13:42:00.982Z,2.30
2023-03-28T13:44:43.218Z,2.30
2023-03-28T13:47:18.845Z,2.83
2023-03-28T13:49:52.197Z,2.80
2023-03-28T13:52:23.323Z,2.38
2023-03-28T13:55:01.581Z,3.05
2023-03-28T13:57:30.544Z,2.90
2023-03-28T14:00:01.538Z,2.80
2023-03-28T14:02:38.309Z,3.00
2023-03-28T14:05:15.948Z,2.53
2023-03-28T14:07:47.054Z,2.53
2023-03-28T14:10:31.569Z,2.75
2023-03-28T14:13:03.722Z,2.75
2023-03-28T14:15:36.273Z,2.90
2023-03-28T14:18:06.777Z,3.22
2023-03-28T14:20:36.259Z,2.78
2023-03-28T14:23:06.250Z,3.00
2023-03-28T14:25:34.590Z,2.95
2023-03-28T14:28:09.070Z,2.60
2023-03-28T14:30:41.120Z,3.40
2023-03-28T14:33:21.507Z,3.05
2023-03-28T14:36:02.074Z,2.83
2023-03-28T14:38:33.256Z,3.55
2023-03-28T14:41:19.393Z,3.38
2023-03-28T14:43:52.126Z,3.28
2023-03-28T14:46:24.510Z,2.70
2023-03-28T14:48:56.238Z,2.95
2023-03-28T14:51:24.936Z,3.15
2023-03-28T14:53:54.256Z,3.03
2023-03-28T14:56:25.194Z,3.42
2023-03-28T14:58:59.352Z,2.70
2023-03-28T15:01:28.750Z,3.13
2023-03-28T15:04:02.550Z,3.00
2023-03-28T15:06:31.352Z,3.00
2023-03-28T15:09:00.536Z,2.90
2023-03-28T15:11:32.581Z,3.08
2023-03-28T15:14:04.823Z,2.85
2023-03-28T15:16:38.606Z,2.92
2023-03-28T15:19:13.989Z,3.03
2023-03-28T15:21:43.745Z,3.45
2023-03-28T15:24:18.881Z,2.78
2023-03-28T15:26:51.236Z,2.90
2023-03-28T15:29:22.283Z,3.25
2023-03-28T15:31:50.761Z,3.20
2023-03-28T15:34:26.840Z,3.40
2023-03-28T15:37:00.589Z,4.05
2023-03-28T15:39:32.232Z,4.13
2023-03-28T15:42:02.903Z,3.53
2023-03-28T15:44:34.113Z,3.60
2023-03-28T15:47:07.379Z,3.30
2023-03-28T15:49:38.744Z,3.33
2023-03-28T15:52:09.881Z,3.35
2023-03-28T15:54:44.496Z,3.55
2023-03-28T15:57:15.470Z,3.25
2023-03-28T15:59:48.658Z,3.58
2023-03-28T16:02:33.431Z,3.85
2023-03-28T16:05:05.066Z,3.38
2023-03-28T16:07:38.572Z,3.50
2023-03-28T16:10:10.913Z,3.55
2023-03-28T16:12:39.070Z,3.65
2023-03-28T16:15:09.002Z,3.55
2023-03-28T16:17:37.671Z,3.92
2023-03-28T16:20:15.313Z,4.30
2023-03-28T16:22:44.320Z,3.72
2023-03-28T16:25:12.454Z,4.10
2023-03-28T16:27:42.509Z,4.47
2023-03-28T16:30:19.049Z,4.15
2023-03-28T16:32:47.611Z,4.07
2023-03-28T16:35:17.228Z,4.07
2023-03-28T16:37:48.299Z,3.70
2023-03-28T16:40:17.381Z,4.28
2023-03-28T16:42:45.980Z,4.15
2023-03-28T16:45:14.430Z,4.00
2023-03-28T16:47:42.773Z,3.75
2023-03-28T16:50:11.706Z,3.90
2023-03-28T16:52:41.877Z,3.95
2023-03-28T16:55:12.125Z,4.80
2023-03-28T16:57:40.082Z,4.07
2023-03-28T17:00:11.852Z,4.80
2023-03-28T17:02:40.085Z,3.67
2023-03-28T17:05:08.846Z,3.28
2023-03-28T17:07:37.093Z,3.03
2023-03-28T17:10:09.016Z,3.38
2023-03-28T17:12:37.312Z,4.07
2023-03-28T17:15:06.706Z,3.30
2023-03-28T17:17:34.990Z,3.80
2023-03-28T17:20:07.536Z,3.17
2023-03-28T17:22:36.231Z,2.90
2023-03-28T17:25:09.134Z,2.90
2023-03-28T17:27:39.432Z,3.38
2023-03-28T17:30:09.014Z,2.72
2023-03-28T17:32:37.210Z,2.95
2023-03-28T17:35:05.841Z,2.80
2023-03-28T17:37:38.722Z,2.58
2023-03-28T17:40:10.540Z,3.25
2023-03-28T17:42:40.503Z,2.90
2023-03-28T17:45:10.698Z,3.17
2023-03-28T17:47:39.745Z,2.97
2023-03-28T17:50:09.333Z,2.83
2023-03-28T17:52:37.802Z,3.25
2023-03-28T17:55:09.588Z,2.97
2023-03-28T17:57:41.742Z,3.22
2023-03-28T18:00:11.346Z,3.33
2023-03-28T18:02:41.374Z,2.88
2023-03-28T18:05:10.009Z,3.00
2023-03-28T18:07:41.470Z,3.25
2023-03-28T18:10:10.189Z,2.85
2023-03-28T18:12:39.802Z,3.10
2023-03-28T18:15:08.872Z,3.10
2023-03-28T18:17:37.193Z,3.35
2023-03-28T18:20:06.364Z,3.80
2023-03-28T18:22:35.273Z,3.85
2023-03-28T18:25:04.193Z,3.53
2023-03-28T18:27:32.292Z,3.70
2023-03-28T18:30:06.687Z,3.67
2023-03-28T18:32:35.101Z,4.10
2023-03-28T18:35:07.177Z,3.70
2023-03-28T18:37:35.511Z,3.72
2023-03-28T18:40:07.156Z,3.63
2023-03-28T18:42:36.600Z,3.60
2023-03-28T18:45:07.650Z,3.80
2023-03-28T18:47:38.790Z,3.80
2023-03-28T18:50:09.421Z,3.75
2023-03-28T18:52:38.182Z,3.95
2023-03-28T18:55:07.691Z,3.88
2023-03-28T18:57:35.919Z,3.83
2023-03-28T19:00:18.090Z,3.90
2023-03-28T19:02:50.260Z,3.97
2023-03-28T19:05:21.771Z,4.30
2023-03-28T19:07:49.771Z,4.70
2023-03-28T19:10:17.878Z,4.38
2023-03-28T19:12:46.013Z,4.33
2023-03-28T19:15:17.268Z,5.07
2023-03-28T19:17:46.120Z,5.83
2023-03-28T19:20:15.604Z,5.80
2023-03-28T19:22:47.206Z,5.93
2023-03-28T19:25:18.324Z,6.90
2023-03-28T19:27:49.667Z,8.63
2023-03-28T19:30:19.461Z,11.82
2023-03-28T19:32:47.688Z,9.97
2023-03-28T19:35:16.086Z,8.93
2023-03-28T19:37:44.459Z,11.27
2023-03-28T19:40:17.211Z,9.63
2023-03-28T19:42:45.587Z,10.07
2023-03-28T19:45:14.845Z,8.17
2023-03-28T19:47:45.079Z,8.70
2023-03-28T19:50:14.104Z,6.97
2023-03-28T19:52:42.643Z,7.80
2023-03-28T19:55:11.657Z,7.87
2023-03-28T19:57:40.939Z,7.47
2023-03-28T20:00:11.842Z,6.63
2023-03-28T20:02:40.269Z,7.63
2023-03-28T20:05:11.163Z,7.27
2023-03-28T20:07:39.246Z,6.03
2023-03-28T20:10:08.860Z,5.97
2023-03-28T20:12:39.926Z,7.45
2023-03-28T20:15:09.890Z,7.60
2023-03-28T20:17:38.569Z,8.07
2023-03-28T20:20:10.521Z,8.13
2023-03-28T20:22:38.968Z,8.57
2023-03-28T20:25:08.484Z,7.87
2023-03-28T20:27:37.909Z,7.23
2023-03-28T20:30:08.086Z,7.60
2023-03-28T20:32:38.934Z,8.00
2023-03-28T20:35:09.909Z,7.23
2023-03-28T20:37:38.063Z,6.57
2023-03-28T20:40:11.643Z,6.87
2023-03-28T20:42:44.220Z,6.33
2023-03-28T20:45:23.068Z,6.57
2023-03-28T20:47:56.358Z,6.70
2023-03-28T20:50:48.965Z,7.53
2023-03-28T21:06:43.347Z,3.70
2023-03-28T21:09:13.475Z,4.00
2023-03-28T21:11:42.348Z,4.60
2023-03-28T21:14:13.009Z,3.90
2023-03-28T21:16:44.310Z,3.73
2023-03-28T21:19:12.645Z,4.20
2023-03-28T21:21:42.606Z,3.63
2023-03-28T21:24:10.937Z,4.20
2023-03-28T21:26:40.361Z,4.47
2023-03-28T21:29:12.255Z,4.40
2023-03-28T21:31:43.015Z,4.47
2023-03-28T21:34:14.300Z,4.50
2023-03-28T21:36:44.585Z,5.00
2023-03-28T21:39:14.010Z,5.83
2023-03-28T21:41:42.332Z,5.90
2023-03-28T21:44:13.663Z,5.97
2023-03-28T21:46:41.823Z,7.33
2023-03-28T21:49:10.445Z,6.57
2023-03-28T21:51:38.795Z,6.70
2023-03-28T21:54:08.539Z,5.37
2023-03-28T21:56:36.746Z,5.83
2023-03-28T21:59:04.936Z,5.57
2023-03-28T22:01:33.071Z,6.83
2023-03-28T22:04:03.340Z,6.10
2023-03-28T22:06:31.535Z,5.63
2023-03-28T22:09:00.100Z,5.20
2023-03-28T22:11:29.843Z,5.80
2023-03-28T22:14:02.448Z,5.67
2023-03-28T22:16:32.670Z,5.67
2023-03-28T22:19:01.628Z,4.87
2023-03-28T22:21:31.616Z,4.93
2023-03-28T22:24:00.488Z,4.80
2023-03-28T22:26:32.696Z,4.87
2023-03-28T22:29:01.092Z,4.03
2023-03-28T22:31:29.341Z,5.17
2023-03-28T22:33:57.943Z,4.10
2023-03-28T22:36:26.228Z,4.17
2023-03-28T22:38:55.740Z,4.33
2023-03-28T22:41:24.536Z,4.03
2023-03-28T22:43:54.638Z,4.50
2023-03-28T22:46:23.271Z,3.83
2023-03-28T22:48:54.728Z,3.40
2023-03-28T22:51:25.312Z,3.40
2023-03-28T22:53:54.853Z,3.50
2023-03-28T22:56:25.540Z,3.00
2023-03-28T22:59:01.457Z,3.07
2023-03-28T23:01:36.444Z,3.10
2023-03-28T23:04:04.528Z,2.70
2023-03-28T23:06:35.230Z,2.87
2023-03-28T23:09:04.618Z,2.83
2023-03-28T23:11:33.091Z,3.10
2023-03-28T23:14:03.598Z,2.80
2023-03-28T23:16:34.904Z,3.13
2023-03-28T23:19:03.903Z,2.67
2023-03-28T23:21:35.556Z,2.40
2023-03-28T23:24:04.931Z,3.07
2023-03-28T23:26:33.290Z,3.00
2023-03-28T23:29:08.592Z,3.03
2023-03-28T23:31:36.890Z,2.97
2023-03-28T23:34:04.858Z,2.93
2023-03-28T23:36:32.965Z,3.10
2023-03-28T23:39:00.984Z,3.20
2023-03-28T23:41:30.845Z,3.00
2023-03-28T23:43:59.158Z,3.10
2023-03-28T23:46:28.834Z,3.30
2023-03-28T23:48:57.035Z,3.53
2023-03-28T23:51:25.673Z,3.30
2023-03-28T23:53:55.038Z,3.53
2023-03-28T23:56:23.919Z,3.43
2023-03-28T23:58:52.151Z,3.67
